Time;durP1;ratioP1;P1;durP2;ratioP2;P2;SDS_P1;SDS_P2;PMS_P1;PMS_P2;Temp;Humidity;BMP_temperature;BMP_pressure;BME280_temperature;BME280_humidity;BME280_pressure;Samples;Min_cycle;Max_cycle;Signal;HPM_P1;HPM_P2
2022/08/18 00:01:47;;;;;;;4.88;2.10;;;18.80;99.90;;;;;;5033072;28;20045;-81
2022/08/18 00:04:13;;;;;;;2.50;1.60;;;18.80;99.90;;;;;;5032958;28;20049;-81
2022/08/18 00:06:40;;;;;;;3.30;2.17;;;18.80;99.90;;;;;;5047550;28;20029;-82
2022/08/18 00:09:08;;;;;;;5.35;2.03;;;18.70;99.90;;;;;;5051644;28;20060;-83
2022/08/18 00:11:39;;;;;;;3.72;2.08;;;18.70;99.90;;;;;;5051570;28;20048;-83
2022/08/18 00:14:06;;;;;;;3.72;2.10;;;18.70;99.90;;;;;;5050927;28;20045;-83
2022/08/18 00:16:31;;;;;;;5.95;2.25;;;18.70;99.90;;;;;;5043255;28;20045;-82
2022/08/18 00:18:57;;;;;;;3.00;1.80;;;18.70;99.90;;;;;;5051710;28;20056;-82
2022/08/18 00:21:23;;;;;;;4.75;2.03;;;18.70;99.90;;;;;;5015334;28;20045;-83
2022/08/18 00:23:49;;;;;;;3.05;2.00;;;18.70;99.90;;;;;;5034551;28;20045;-81
2022/08/18 00:26:15;;;;;;;3.10;1.63;;;18.70;99.90;;;;;;5035860;28;20043;-81
2022/08/18 00:28:40;;;;;;;2.63;1.60;;;18.70;99.90;;;;;;5038949;28;20091;-81
2022/08/18 00:31:06;;;;;;;4.45;1.90;;;18.70;99.90;;;;;;5043703;28;20043;-81
2022/08/18 00:33:32;;;;;;;3.47;1.83;;;18.70;99.90;;;;;;5036115;28;20041;-81
2022/08/18 00:35:57;;;;;;;4.30;1.90;;;18.70;99.90;;;;;;5018298;28;20044;-80
2022/08/18 00:38:23;;;;;;;2.83;1.80;;;18.70;99.90;;;;;;5051714;28;20044;-80
2022/08/18 00:40:50;;;;;;;3.63;1.92;;;18.70;99.90;;;;;;5052233;28;20044;-82
2022/08/18 00:43:26;;;;;;;3.65;1.60;;;18.70;99.90;;;;;;5054609;28;20403;-82
2022/08/18 00:45:52;;;;;;;2.83;1.70;;;18.60;99.90;;;;;;5036367;28;20034;-82
2022/08/18 00:48:17;;;;;;;2.95;1.80;;;18.60;99.90;;;;;;5036901;28;20044;-82
2022/08/18 00:50:57;;;;;;;2.92;1.65;;;18.60;99.90;;;;;;5043582;28;20418;-82
2022/08/18 00:53:30;;;;;;;2.67;1.83;;;18.50;99.90;;;;;;5056096;28;20045;-82
2022/08/18 00:56:02;;;;;;;3.22;1.90;;;18.60;99.90;;;;;;5055813;28;20033;-82
2022/08/18 00:58:32;;;;;;;4.43;1.73;;;18.60;99.90;;;;;;5056013;28;20106;-82
2022/08/18 01:01:03;;;;;;;4.63;1.83;;;18.60;99.90;;;;;;5055233;28;20048;-82
2022/08/18 01:03:29;;;;;;;4.90;1.98;;;18.60;99.90;;;;;;5055504;28;20037;-82
2022/08/18 01:06:02;;;;;;;7.72;2.42;;;18.70;99.90;;;;;;5038284;28;20041;-82
2022/08/18 01:08:28;;;;;;;9.10;3.25;;;18.70;99.90;;;;;;5038798;28;20037;-82
2022/08/18 01:10:55;;;;;;;5.57;2.30;;;18.70;99.90;;;;;;5055397;28;20106;-82
2022/08/18 01:13:26;;;;;;;8.52;2.50;;;18.70;99.90;;;;;;5038401;28;20094;-81
2022/08/18 01:15:52;;;;;;;4.63;1.95;;;18.70;99.90;;;;;;5043912;28;20111;-81
2022/08/18 01:24:04;;;;;;;5.45;2.15;;;18.80;99.90;;;;;;5055871;28;20045;-81
2022/08/18 01:26:34;;;;;;;3.60;2.13;;;18.80;99.90;;;;;;5038344;28;20213;-81
2022/08/18 01:29:05;;;;;;;3.13;1.92;;;18.80;99.90;;;;;;5039406;28;20048;-82
2022/08/18 01:31:48;;;;;;;5.60;2.25;;;18.80;99.90;;;;;;5055358;28;20124;-82
2022/08/18 01:34:15;;;;;;;3.92;1.98;;;18.80;99.90;;;;;;5055234;28;20076;-82
2022/08/18 01:36:42;;;;;;;5.30;2.00;;;18.80;99.90;;;;;;5035172;28;20072;-82
2022/08/18 01:39:10;;;;;;;2.05;1.60;;;18.80;99.90;;;;;;5053336;28;20041;-82
2022/08/18 01:41:36;;;;;;;3.17;1.70;;;18.80;99.90;;;;;;5021852;28;20403;-82
2022/08/18 01:44:03;;;;;;;3.00;1.70;;;18.80;99.90;;;;;;5055342;28;20041;-82
2022/08/18 01:46:33;;;;;;;5.00;1.80;;;18.80;99.90;;;;;;5054028;28;20080;-82
2022/08/18 01:49:00;;;;;;;2.75;1.67;;;18.80;99.90;;;;;;5054935;28;20037;-83
2022/08/18 01:51:31;;;;;;;3.83;1.58;;;18.80;99.90;;;;;;5055505;28;20471;-83
2022/08/18 01:53:58;;;;;;;3.33;1.90;;;18.80;99.90;;;;;;5037576;28;20041;-83
2022/08/18 01:56:26;;;;;;;4.65;1.52;;;18.70;99.90;;;;;;5055059;28;20045;-83
2022/08/18 01:58:53;;;;;;;3.13;1.80;;;18.80;99.90;;;;;;5054752;28;20041;-83
2022/08/18 02:01:23;;;;;;;3.92;2.00;;;18.80;99.90;;;;;;5038643;28;20048;-83
2022/08/18 02:03:53;;;;;;;5.25;1.90;;;18.80;99.90;;;;;;5054941;28;20044;-82
2022/08/18 02:06:19;;;;;;;3.55;1.60;;;18.70;99.90;;;;;;5055404;28;20033;-82
2022/08/18 02:08:45;;;;;;;3.22;1.85;;;18.80;99.90;;;;;;5037138;28;20368;-82
2022/08/18 02:11:12;;;;;;;3.17;1.77;;;18.80;99.90;;;;;;5054572;28;20052;-82
2022/08/18 02:13:39;;;;;;;3.58;2.30;;;18.80;99.90;;;;;;5038294;28;20110;-82
2022/08/18 02:16:06;;;;;;;2.78;1.85;;;18.80;99.90;;;;;;5055190;28;20387;-82
2022/08/18 02:18:35;;;;;;;5.18;2.13;;;18.80;99.90;;;;;;5053564;28;20064;-82
2022/08/18 02:21:07;;;;;;;2.65;1.65;;;18.80;99.90;;;;;;5054846;28;20041;-82
2022/08/18 02:23:33;;;;;;;3.65;1.90;;;18.80;99.90;;;;;;5038648;28;20044;-81
2022/08/18 02:26:03;;;;;;;3.25;1.90;;;18.80;99.90;;;;;;5038378;28;20546;-81
2022/08/18 02:28:29;;;;;;;6.72;2.65;;;18.80;99.90;;;;;;5054489;28;20090;-81
2022/08/18 02:30:54;;;;;;;3.63;2.05;;;18.80;99.90;;;;;;5020025;28;20387;-81
2022/08/18 02:33:20;;;;;;;3.53;2.00;;;18.80;99.90;;;;;;5038455;28;20045;-81
2022/08/18 02:35:53;;;;;;;3.03;2.17;;;18.80;99.90;;;;;;5038205;28;20098;-81
2022/08/18 02:38:18;;;;;;;2.53;1.77;;;18.80;99.90;;;;;;5054673;28;20048;-81
2022/08/18 02:40:45;;;;;;;6.13;1.88;;;18.80;99.90;;;;;;5032953;28;20041;-81
2022/08/18 02:43:11;;;;;;;2.95;1.90;;;18.80;99.90;;;;;;5018408;28;20037;-81
2022/08/18 02:45:38;;;;;;;3.25;1.92;;;18.80;99.90;;;;;;5034560;28;20487;-81
2022/08/18 02:48:05;;;;;;;3.50;1.98;;;18.80;99.90;;;;;;5034448;28;20380;-82
2022/08/18 02:50:30;;;;;;;3.75;2.08;;;18.80;99.90;;;;;;5023370;28;20052;-82
2022/08/18 02:52:56;;;;;;;3.35;2.15;;;18.70;99.90;;;;;;5053975;28;20037;-82
2022/08/18 02:55:25;;;;;;;3.10;2.00;;;18.70;99.90;;;;;;5054625;28;20078;-83
2022/08/18 02:57:51;;;;;;;3.65;1.90;;;18.70;99.90;;;;;;5037526;28;20041;-83
2022/08/18 03:00:18;;;;;;;4.13;1.90;;;18.70;99.90;;;;;;5036171;28;20166;-83
2022/08/18 03:02:50;;;;;;;3.30;1.80;;;18.70;99.90;;;;;;5054295;28;20052;-82
2022/08/18 03:05:17;;;;;;;3.03;2.10;;;18.70;99.90;;;;;;5053625;28;20391;-83
2022/08/18 03:07:44;;;;;;;4.30;2.10;;;18.70;99.90;;;;;;5037578;28;20543;-83
2022/08/18 03:10:10;;;;;;;4.65;2.10;;;18.70;99.90;;;;;;5037474;28;20048;-82
2022/08/18 03:12:36;;;;;;;3.55;2.03;;;18.70;99.90;;;;;;5036155;28;20041;-82
2022/08/18 03:15:03;;;;;;;2.28;1.70;;;18.70;99.90;;;;;;5049124;28;20045;-81
2022/08/18 03:17:30;;;;;;;3.80;2.28;;;18.70;99.90;;;;;;5004345;28;20041;-81
2022/08/18 03:19:56;;;;;;;2.90;1.80;;;18.70;99.90;;;;;;5057039;22;20083;-82
2022/08/18 03:22:22;;;;;;;3.67;2.00;;;18.70;99.90;;;;;;5055916;28;20080;-82
2022/08/18 03:24:48;;;;;;;3.20;2.00;;;18.70;99.90;;;;;;5040393;28;20044;-82
2022/08/18 03:27:14;;;;;;;5.50;2.15;;;18.70;99.90;;;;;;5056745;28;20040;-82
2022/08/18 03:29:39;;;;;;;3.83;1.92;;;18.70;99.90;;;;;;5019204;28;20041;-81
2022/08/18 03:32:06;;;;;;;2.70;1.92;;;18.70;99.90;;;;;;5035150;28;20098;-81
2022/08/18 03:34:32;;;;;;;3.10;1.80;;;18.70;99.90;;;;;;5057055;28;20059;-81
2022/08/18 03:36:58;;;;;;;5.65;2.47;;;18.70;99.90;;;;;;5056620;28;20478;-81
2022/08/18 03:39:26;;;;;;;3.08;2.08;;;18.70;99.90;;;;;;5056155;28;20033;-81
2022/08/18 03:41:53;;;;;;;3.85;2.00;;;18.70;99.90;;;;;;5040105;28;20033;-81
2022/08/18 03:44:19;;;;;;;2.58;1.80;;;18.70;99.90;;;;;;5056466;28;20107;-82
2022/08/18 03:46:46;;;;;;;4.45;2.10;;;18.70;99.90;;;;;;5056429;28;20041;-82
2022/08/18 03:49:12;;;;;;;7.57;2.33;;;18.70;99.90;;;;;;5040353;28;20059;-82
2022/08/18 03:51:42;;;;;;;3.60;2.25;;;18.70;99.90;;;;;;5053587;28;20475;-82
2022/08/18 03:54:09;;;;;;;4.57;2.20;;;18.70;99.90;;;;;;5056718;28;20548;-83
2022/08/18 03:56:37;;;;;;;3.38;2.20;;;18.70;99.90;;;;;;5039672;28;20045;-83
2022/08/18 03:59:13;;;;;;;3.08;2.10;;;18.60;99.90;;;;;;5057560;28;20048;-83
2022/08/18 04:01:41;;;;;;;3.75;2.20;;;18.70;99.90;;;;;;5035423;28;20040;-82
2022/08/18 04:04:09;;;;;;;3.47;2.17;;;18.70;99.90;;;;;;5036680;28;20044;-82
2022/08/18 04:06:39;;;;;;;3.40;2.30;;;18.60;99.90;;;;;;5019932;28;20043;-82
2022/08/18 04:09:08;;;;;;;5.15;2.65;;;18.60;99.90;;;;;;5036245;28;20041;-82
2022/08/18 04:11:36;;;;;;;3.78;2.30;;;18.60;99.90;;;;;;5046157;28;20056;-82
2022/08/18 04:14:03;;;;;;;3.40;2.15;;;18.60;99.90;;;;;;5036322;28;20037;-83
2022/08/18 04:16:37;;;;;;;3.78;2.40;;;18.60;99.90;;;;;;5035796;28;20526;-82
2022/08/18 04:19:03;;;;;;;4.95;2.60;;;18.60;99.90;;;;;;5054822;28;20406;-81
2022/08/18 04:21:31;;;;;;;4.22;2.40;;;18.60;99.90;;;;;;5055305;28;20051;-81
2022/08/18 04:24:03;;;;;;;6.28;3.00;;;18.60;99.90;;;;;;5039218;28;20505;-81
2022/08/18 04:26:34;;;;;;;5.47;3.10;;;18.60;99.90;;;;;;5056013;28;20041;-81
2022/08/18 04:29:00;;;;;;;6.22;3.13;;;18.70;99.90;;;;;;5055293;28;20498;-81
2022/08/18 04:31:28;;;;;;;5.70;3.10;;;18.70;99.90;;;;;;5052051;28;20105;-81
2022/08/18 04:33:55;;;;;;;5.00;2.92;;;18.70;99.90;;;;;;5056063;28;20048;-82
2022/08/18 04:36:21;;;;;;;5.60;2.80;;;18.70;99.90;;;;;;5043074;28;20051;-82
2022/08/18 04:38:48;;;;;;;5.03;3.33;;;18.70;99.90;;;;;;5055676;28;20393;-82
2022/08/18 04:41:13;;;;;;;4.95;2.90;;;18.70;99.90;;;;;;5055310;28;20048;-83
2022/08/18 04:43:40;;;;;;;4.43;2.65;;;18.70;99.90;;;;;;5039094;28;20186;-82
2022/08/18 04:46:06;;;;;;;5.78;2.60;;;18.70;99.90;;;;;;5039442;28;20094;-83
2022/08/18 04:48:34;;;;;;;5.53;3.70;;;18.70;99.90;;;;;;5055282;28;20040;-82
2022/08/18 04:51:09;;;;;;;5.40;3.80;;;18.70;99.90;;;;;;5018670;28;20049;-82
2022/08/18 04:53:44;;;;;;;4.45;2.60;;;18.70;99.90;;;;;;5018972;28;20081;-83
2022/08/18 04:56:26;;;;;;;3.70;2.67;;;18.70;99.90;;;;;;5052488;28;20045;-82
2022/08/18 04:58:55;;;;;;;5.40;2.47;;;18.60;99.90;;;;;;5053491;28;20388;-83
2022/08/18 05:01:24;;;;;;;5.70;2.83;;;18.70;99.90;;;;;;5037345;28;20040;-83
2022/08/18 05:03:51;;;;;;;8.20;3.70;;;18.60;99.90;;;;;;5055873;28;20044;-83
2022/08/18 05:06:19;;;;;;;8.18;3.10;;;18.70;99.90;;;;;;5055350;28;20040;-83
2022/08/18 05:08:47;;;;;;;4.20;2.78;;;18.70;99.90;;;;;;5055238;28;20035;-83
2022/08/18 05:11:14;;;;;;;5.10;3.22;;;18.70;99.90;;;;;;5055076;28;20115;-83
2022/08/18 05:13:41;;;;;;;4.93;2.90;;;18.70;99.90;;;;;;5039058;28;20043;-82
2022/08/18 05:16:07;;;;;;;5.68;2.30;;;18.80;99.90;;;;;;5055559;28;20044;-82
2022/08/18 05:18:39;;;;;;;5.15;2.70;;;18.80;99.90;;;;;;5055617;28;20049;-82
2022/08/18 05:21:15;;;;;;;4.78;2.25;;;18.80;99.90;;;;;;5048798;28;20048;-82
2022/08/18 05:23:41;;;;;;;;;;;18.90;99.90;;;;;;5039152;28;20039;-82
2022/08/18 05:26:08;;;;;;;5.13;2.70;;;18.90;99.90;;;;;;5055324;28;19952;-82
2022/08/18 05:28:36;;;;;;;7.00;2.83;;;18.90;99.90;;;;;;5030600;28;20449;-82
2022/08/18 05:31:13;;;;;;;5.60;2.55;;;19.00;99.90;;;;;;5050012;28;20044;-82
2022/08/18 05:33:39;;;;;;;4.50;2.53;;;19.00;99.90;;;;;;5058615;28;20059;-82
2022/08/18 05:36:28;;;;;;;3.83;2.33;;;19.10;99.90;;;;;;5041964;28;20101;-82
2022/08/18 05:39:32;;;;;;;4.65;2.30;;;19.10;99.90;;;;;;5008182;28;20548;-82
2022/08/18 05:42:10;;;;;;;3.50;2.15;;;19.10;99.90;;;;;;5013891;28;20075;-82
2022/08/18 05:44:40;;;;;;;4.43;2.28;;;19.20;99.90;;;;;;5040452;28;20037;-83
2022/08/18 05:47:30;;;;;;;4.60;2.65;;;19.20;99.90;;;;;;5058777;28;20055;-83
2022/08/18 05:50:03;;;;;;;3.50;2.30;;;19.20;99.90;;;;;;5058500;28;20052;-82
2022/08/18 05:52:56;;;;;;;5.13;2.08;;;19.30;99.90;;;;;;5058042;28;20655;-82
2022/08/18 05:58:21;;;;;;;5.93;2.58;;;19.30;99.90;;;;;;5050809;28;20048;-83
2022/08/18 06:00:52;;;;;;;4.60;2.45;;;19.30;99.90;;;;;;5058204;28;20040;-83
2022/08/18 06:03:28;;;;;;;3.88;2.70;;;19.40;99.90;;;;;;5050509;28;20033;-83
2022/08/18 06:06:07;;;;;;;3.65;2.25;;;19.30;99.90;;;;;;5031659;28;20048;-83
2022/08/18 06:09:08;;;;;;;5.05;2.05;;;19.40;99.90;;;;;;5058286;28;20044;-82
2022/08/18 06:11:34;;;;;;;3.30;1.98;;;19.40;99.90;;;;;;5020622;28;20101;-82
2022/08/18 06:14:00;;;;;;;3.10;1.90;;;19.50;99.90;;;;;;5057709;28;20066;-82
2022/08/18 06:16:46;;;;;;;3.85;1.80;;;19.60;99.90;;;;;;5057528;28;20039;-82
2022/08/18 06:19:29;;;;;;;3.30;1.70;;;19.60;99.90;;;;;;5049886;28;20124;-82
2022/08/18 06:22:18;;;;;;;3.47;1.90;;;19.70;99.90;;;;;;5057542;28;20036;-81
2022/08/18 06:25:05;;;;;;;3.00;1.77;;;19.80;99.90;;;;;;5017457;28;20071;-81
2022/08/18 06:27:48;;;;;;;3.13;1.90;;;19.90;99.90;;;;;;5057946;28;20367;-81
2022/08/18 06:30:21;;;;;;;4.13;1.92;;;19.90;99.90;;;;;;5041246;28;20114;-82
2022/08/18 06:33:05;;;;;;;3.95;1.83;;;19.90;99.90;;;;;;5041170;28;20038;-82
2022/08/18 06:35:44;;;;;;;2.88;1.63;;;20.00;99.90;;;;;;5057691;28;20045;-82
2022/08/18 06:38:37;;;;;;;3.42;1.70;;;20.00;99.90;;;;;;5057419;28;20048;-83
2022/08/18 06:41:11;;;;;;;2.92;1.50;;;20.00;99.90;;;;;;5056211;28;20044;-83
2022/08/18 06:43:52;;;;;;;2.60;1.60;;;20.00;99.90;;;;;;5057305;28;20051;-82
2022/08/18 06:46:22;;;;;;;3.25;1.60;;;19.90;99.90;;;;;;5055659;28;20040;-83
2022/08/18 06:48:55;;;;;;;4.32;1.48;;;19.90;99.90;;;;;;5057294;28;20040;-81
2022/08/18 06:51:26;;;;;;;3.72;1.80;;;20.00;99.90;;;;;;5057511;28;20037;-81
2022/08/18 06:54:00;;;;;;;3.75;1.85;;;20.00;99.90;;;;;;5057676;28;20182;-81
2022/08/18 06:56:34;;;;;;;2.40;1.35;;;20.10;99.90;;;;;;5057156;28;20054;-81
2022/08/18 06:59:23;;;;;;;2.45;1.52;;;20.30;99.90;;;;;;5040847;28;20046;-81
2022/08/18 07:01:56;;;;;;;1.48;1.25;;;20.40;99.90;;;;;;5057486;28;20375;-81
2022/08/18 07:04:39;;;;;;;4.07;1.52;;;20.60;99.90;;;;;;5056825;28;20048;-83
2022/08/18 07:07:38;;;;;;;3.28;1.08;;;20.70;99.90;;;;;;5040001;28;20037;-84
2022/08/18 07:10:28;;;;;;;3.03;1.38;;;21.20;99.90;;;;;;4995080;28;20106;-84
2022/08/18 07:13:27;;;;;;;2.85;1.52;;;21.40;99.90;;;;;;5052536;28;20040;-83
2022/08/18 07:15:55;;;;;;;2.33;1.15;;;22.30;99.90;;;;;;5014267;28;20056;-83
2022/08/18 07:18:25;;;;;;;2.40;1.00;;;22.90;99.90;;;;;;5057150;28;20095;-83
2022/08/18 07:20:55;;;;;;;3.28;0.90;;;23.00;99.90;;;;;;5056776;28;20060;-81
2022/08/18 07:23:37;;;;;;;3.63;1.20;;;22.90;99.90;;;;;;5050361;28;20036;-81
2022/08/18 07:26:16;;;;;;;1.17;0.90;;;22.70;99.90;;;;;;5020852;28;20033;-81
2022/08/18 07:28:48;;;;;;;2.50;1.25;;;22.30;99.90;;;;;;5036651;28;20080;-81
2022/08/18 07:31:33;;;;;;;1.63;0.73;;;22.00;99.90;;;;;;5020019;28;20045;-81
2022/08/18 07:34:17;;;;;;;0.93;0.83;;;21.80;99.90;;;;;;5044578;28;20044;-81
2022/08/18 07:36:53;;;;;;;0.93;0.70;;;22.10;99.90;;;;;;5051950;28;20291;-84
2022/08/18 07:39:37;;;;;;;;;;;21.60;99.90;;;;;;5056831;28;20028;-85
2022/08/18 07:42:22;;;;;;;2.90;0.80;;;21.50;99.90;;;;;;5037792;28;19920;-84
2022/08/18 07:44:58;;;;;;;1.20;0.70;;;21.60;99.90;;;;;;5056470;28;20037;-84
2022/08/18 07:47:41;;;;;;;1.33;0.80;;;21.60;99.90;;;;;;5056857;28;20048;-84
2022/08/18 07:50:07;;;;;;;1.20;0.73;;;21.70;99.90;;;;;;5039147;28;20028;-84
2022/08/18 07:52:44;;;;;;;1.70;0.90;;;21.80;99.90;;;;;;5029497;28;20494;-84
2022/08/18 07:55:26;;;;;;;2.70;0.80;;;21.70;99.90;;;;;;5055766;28;20090;-82
2022/08/18 07:58:14;;;;;;;2.90;0.50;;;21.60;99.90;;;;;;5026633;28;20454;-82
2022/08/18 08:01:01;;;;;;;0.98;0.75;;;21.60;99.90;;;;;;5046730;28;20110;-82
2022/08/18 08:03:51;;;;;;;1.25;0.70;;;21.60;99.90;;;;;;5037209;28;20037;-82
2022/08/18 08:06:27;;;;;;;3.10;0.93;;;21.90;99.90;;;;;;5055241;28;20094;-82
2022/08/18 08:09:21;;;;;;;2.13;0.73;;;22.30;99.90;;;;;;5056124;28;20036;-82
2022/08/18 08:11:59;;;;;;;2.65;0.77;;;22.60;99.90;;;;;;5052521;28;20120;-84
2022/08/18 08:14:25;;;;;;;3.58;1.17;;;22.60;99.90;;;;;;5039257;28;20043;-84
2022/08/18 08:17:07;;;;;;;1.10;0.80;;;22.60;99.90;;;;;;5030118;28;20391;-84
2022/08/18 08:20:07;;;;;;;1.55;0.68;;;22.60;99.90;;;;;;5050513;28;20106;-84
2022/08/18 08:23:04;;;;;;;1.80;0.85;;;22.70;99.90;;;;;;5031329;28;20045;-84
2022/08/18 08:25:43;;;;;;;2.00;1.10;;;22.90;99.90;;;;;;5032362;28;20045;-84
2022/08/18 08:28:19;;;;;;;3.65;1.30;;;23.10;99.90;;;;;;5007414;28;20033;-84
2022/08/18 08:31:03;;;;;;;4.03;1.20;;;23.10;99.90;;;;;;5032336;28;20075;-84
2022/08/18 08:33:54;;;;;;;2.50;1.17;;;23.20;99.90;;;;;;5026555;28;20037;-84
2022/08/18 08:36:29;;;;;;;3.08;1.33;;;23.20;99.90;;;;;;5016378;28;20086;-84
2022/08/18 08:39:04;;;;;;;1.67;1.23;;;23.10;99.90;;;;;;5015411;28;20444;-84
2022/08/18 08:41:49;;;;;;;4.38;1.40;;;23.20;99.90;;;;;;5039143;28;20120;-84
2022/08/18 08:44:32;;;;;;;5.20;1.30;;;23.30;99.90;;;;;;5029285;28;20042;-81
2022/08/18 08:47:14;;;;;;;2.53;1.00;;;23.60;99.90;;;;;;5014582;28;20494;-81
2022/08/18 08:50:01;;;;;;;2.47;1.02;;;23.80;99.90;;;;;;5032727;28;20072;-81
2022/08/18 08:52:58;;;;;;;1.48;0.95;;;24.40;99.90;;;;;;5032420;28;20052;-81
2022/08/18 08:55:36;;;;;;;3.22;1.15;;;25.10;99.90;;;;;;5032317;28;20403;-81
2022/08/18 08:58:21;;;;;;;2.88;1.05;;;25.00;99.90;;;;;;5031465;28;20124;-81
2022/08/18 09:00:49;;;;;;;1.58;0.90;;;24.90;99.90;;;;;;5030947;28;20038;-84
2022/08/18 09:03:21;;;;;;;2.15;0.75;;;24.60;99.90;;;;;;5012960;28;20088;-84
2022/08/18 09:06:08;;;;;;;1.08;0.60;;;24.40;99.90;;;;;;5024156;28;20076;-84
2022/08/18 09:08:59;;;;;;;1.50;1.08;;;24.30;99.90;;;;;;5036077;28;20045;-84
2022/08/18 09:11:47;;;;;;;3.20;0.98;;;24.20;99.90;;;;;;5036334;28;20498;-84
2022/08/18 09:14:22;;;;;;;1.13;0.68;;;24.00;99.90;;;;;;5019643;28;20043;-84
2022/08/18 09:17:11;;;;;;;1.30;0.57;;;23.70;99.90;;;;;;5019901;28;20129;-82
2022/08/18 09:19:53;;;;;;;1.45;0.90;;;23.30;99.90;;;;;;5049379;28;20049;-82
2022/08/18 09:22:47;;;;;;;6.78;1.50;;;23.10;99.90;;;;;;5055674;28;20044;-81
2022/08/18 09:25:42;;;;;;;1.55;0.85;;;23.10;99.90;;;;;;5055974;28;20043;-82
2022/08/18 09:28:20;;;;;;;1.35;0.77;;;23.20;99.90;;;;;;5056283;28;20120;-82
2022/08/18 09:31:05;;;;;;;1.90;0.80;;;23.40;99.90;;;;;;5036622;28;20044;-82
2022/08/18 09:33:39;;;;;;;0.98;0.80;;;23.50;99.90;;;;;;5055008;28;20375;-82
2022/08/18 09:36:32;;;;;;;0.68;0.65;;;23.60;99.90;;;;;;5025709;28;20064;-82
2022/08/18 09:42:03;;;;;;;0.60;0.47;;;23.50;99.90;;;;;;5043007;28;20410;-81
2022/08/18 09:44:47;;;;;;;0.93;0.68;;;23.50;99.90;;;;;;5036509;28;20399;-81
2022/08/18 09:47:32;;;;;;;1.70;0.80;;;23.50;99.90;;;;;;5035680;28;20415;-81
2022/08/18 09:50:26;;;;;;;2.83;1.20;;;23.30;99.90;;;;;;5022660;28;20554;-83
2022/08/18 09:52:54;;;;;;;1.23;0.85;;;23.10;99.90;;;;;;5035447;28;20064;-83
2022/08/18 09:55:23;;;;;;;3.90;1.42;;;23.00;99.90;;;;;;5037768;28;20068;-83
2022/08/18 09:58:19;;;;;;;5.25;1.13;;;23.10;99.90;;;;;;5019832;28;20124;-83
2022/08/18 10:01:23;;;;;;;1.83;1.13;;;23.40;99.90;;;;;;5035337;28;20132;-83
2022/08/18 10:04:17;;;;;;;1.80;1.10;;;23.90;99.90;;;;;;5027398;28;20046;-83
2022/08/18 10:06:45;;;;;;;1.30;0.80;;;24.20;99.90;;;;;;5035086;28;20041;-81
2022/08/18 10:09:33;;;;;;;0.98;0.73;;;24.60;99.90;;;;;;5029442;28;20371;-81
2022/08/18 10:12:04;;;;;;;0.93;0.70;;;24.70;99.90;;;;;;5038881;28;20045;-80
2022/08/18 10:14:45;;;;;;;1.60;0.60;;;24.60;99.90;;;;;;5031586;28;20419;-80
2022/08/18 10:17:20;;;;;;;1.67;0.90;;;24.30;99.90;;;;;;5031006;28;20048;-80
2022/08/18 10:20:07;;;;;;;2.75;1.17;;;24.20;99.90;;;;;;5049205;28;20411;-80
2022/08/18 10:22:38;;;;;;;1.55;0.80;;;24.00;99.90;;;;;;5036224;28;20044;-80
2022/08/18 10:25:07;;;;;;;0.73;0.63;;;24.00;99.90;;;;;;5038111;28;20051;-81
2022/08/18 10:27:45;;;;;;;2.78;1.17;;;24.10;99.90;;;;;;5045403;28;20041;-81
2022/08/18 10:30:33;;;;;;;2.25;1.15;;;24.30;99.90;;;;;;5054639;28;20044;-81
2022/08/18 10:33:07;;;;;;;1.30;1.05;;;24.70;99.90;;;;;;5037236;28;20458;-81
2022/08/18 10:35:35;;;;;;;0.85;0.73;;;25.00;99.90;;;;;;5022891;28;20037;-81
2022/08/18 10:38:23;;;;;;;0.88;0.60;;;25.00;99.90;;;;;;5053892;28;20041;-81
2022/08/18 10:40:58;;;;;;;1.42;0.70;;;25.10;99.90;;;;;;5044454;28;20052;-83
2022/08/18 10:43:29;;;;;;;3.00;0.90;;;25.00;99.90;;;;;;5053758;28;20052;-83
2022/08/18 10:45:56;;;;;;;1.10;0.70;;;24.90;99.90;;;;;;5052554;28;20053;-83
2022/08/18 10:48:29;;;;;;;3.45;0.90;;;25.10;99.90;;;;;;5054368;28;20045;-85
2022/08/18 10:51:24;;;;;;;0.98;0.70;;;24.80;99.90;;;;;;5054014;28;20577;-86
2022/08/18 10:54:04;;;;;;;0.75;0.75;;;24.80;99.90;;;;;;5054344;28;20049;-85
2022/08/18 10:56:46;;;;;;;1.20;0.85;;;24.70;99.90;;;;;;5036732;28;20475;-85
2022/08/18 10:59:32;;;;;;;2.35;1.40;;;24.60;99.90;;;;;;5057032;28;20041;-85
2022/08/18 11:02:26;;;;;;;1.05;0.73;;;24.40;99.90;;;;;;5055451;28;20064;-85
2022/08/18 11:04:54;;;;;;;1.30;0.88;;;24.40;99.90;;;;;;5052782;28;20057;-86
2022/08/18 11:07:27;;;;;;;1.95;1.10;;;24.20;99.90;;;;;;5053108;28;20442;-85
2022/08/18 11:09:56;;;;;;;0.73;0.70;;;24.10;99.90;;;;;;5053725;28;20099;-85
2022/08/18 11:12:59;;;;;;;0.70;0.68;;;24.00;99.90;;;;;;5053334;28;20076;-85
2022/08/18 11:16:09;;;;;;;1.17;0.93;;;24.00;99.90;;;;;;5051623;28;20379;-86
2022/08/18 11:18:45;;;;;;;6.07;1.00;;;24.30;99.90;;;;;;4960666;28;20548;-85
2022/08/18 11:21:36;;;;;;;1.52;0.88;;;25.00;99.90;;;;;;5024015;28;20095;-86
2022/08/18 11:24:19;;;;;;;2.10;0.80;;;25.60;99.90;;;;;;5032716;28;20037;-85
2022/08/18 11:27:04;;;;;;;1.02;0.82;;;25.80;99.90;;;;;;5017435;28;20040;-86
2022/08/18 11:29:38;;;;;;;1.92;0.57;;;26.10;99.90;;;;;;5034283;28;20384;-86
2022/08/18 11:32:32;;;;;;;1.33;1.00;;;26.40;99.90;;;;;;5032995;28;20052;-82
2022/08/18 11:34:58;;;;;;;0.95;0.70;;;26.40;99.90;;;;;;5017428;28;20391;-82
2022/08/18 11:37:47;;;;;;;2.88;0.98;;;26.30;99.90;;;;;;5016793;28;20052;-83
2022/08/18 11:40:22;;;;;;;1.55;0.80;;;26.20;99.90;;;;;;5027046;28;20033;-82
2022/08/18 11:43:11;;;;;;;1.25;0.73;;;26.10;99.90;;;;;;4997255;28;20532;-82
2022/08/18 11:45:44;;;;;;;1.88;0.68;;;25.90;99.90;;;;;;4999471;28;20030;-82
2022/08/18 11:48:27;;;;;;;3.03;1.13;;;25.90;99.90;;;;;;5032975;28;20037;-85
2022/08/18 11:51:00;;;;;;;1.60;1.02;;;25.70;99.90;;;;;;5021302;28;20041;-85
2022/08/18 11:53:32;;;;;;;0.77;0.68;;;25.80;99.90;;;;;;5005436;28;20045;-85
2022/08/18 11:56:16;;;;;;;2.63;1.02;;;26.00;99.90;;;;;;5045063;28;20042;-85
2022/08/18 11:58:54;;;;;;;0.90;0.80;;;25.70;99.90;;;;;;5042286;28;20368;-85
2022/08/18 12:01:26;;;;;;;0.80;0.65;;;26.50;99.90;;;;;;5032527;28;20030;-85
2022/08/18 12:03:52;;;;;;;2.00;1.13;;;27.20;99.90;;;;;;5059026;28;20045;-88
2022/08/18 12:06:30;;;;;;;2.80;1.10;;;27.40;99.20;;;;;;5037426;28;20044;-85
2022/08/18 12:09:04;;;;;;;1.23;0.90;;;27.30;98.90;;;;;;5052455;28;20029;-85
2022/08/18 12:11:37;;;;;;;1.67;1.00;;;27.10;99.70;;;;;;5031445;28;20106;-85
2022/08/18 12:14:09;;;;;;;2.75;1.10;;;27.20;98.80;;;;;;5034367;28;20377;-85
2022/08/18 12:16:41;;;;;;;2.42;0.90;;;27.10;98.60;;;;;;5050063;28;20384;-85
2022/08/18 12:19:09;;;;;;;0.95;0.80;;;27.20;99.50;;;;;;5027283;28;20052;-85
2022/08/18 12:21:41;;;;;;;1.20;0.90;;;27.20;99.40;;;;;;5052045;28;20081;-82
2022/08/18 12:24:20;;;;;;;1.75;1.20;;;27.20;98.00;;;;;;5027525;28;20049;-82
2022/08/18 12:26:48;;;;;;;1.30;0.90;;;27.00;97.50;;;;;;5030626;28;20073;-82
2022/08/18 12:29:16;;;;;;;1.02;0.90;;;27.20;98.50;;;;;;5046866;28;20038;-83
2022/08/18 12:31:42;;;;;;;2.22;1.17;;;27.50;98.40;;;;;;5031322;28;20479;-83
2022/08/18 12:34:08;;;;;;;3.67;1.30;;;27.50;98.70;;;;;;5047667;28;20047;-83
2022/08/18 12:36:34;;;;;;;1.67;1.20;;;27.50;98.00;;;;;;5030166;28;20076;-82
2022/08/18 12:39:01;;;;;;;1.55;0.93;;;27.70;99.70;;;;;;5046132;28;20344;-82
2022/08/18 12:41:26;;;;;;;4.15;1.25;;;28.20;98.90;;;;;;5052193;28;20079;-82
2022/08/18 12:43:52;;;;;;;1.33;1.00;;;28.30;97.50;;;;;;5052322;28;20068;-82
2022/08/18 12:46:19;;;;;;;2.15;1.23;;;28.10;97.00;;;;;;5036326;28;20048;-83
2022/08/18 12:48:45;;;;;;;1.38;1.08;;;27.70;97.30;;;;;;5052362;28;20087;-83
2022/08/18 12:51:12;;;;;;;0.95;0.80;;;27.40;97.40;;;;;;5043290;28;20056;-82
2022/08/18 12:53:39;;;;;;;3.08;1.10;;;27.20;97.40;;;;;;5047361;28;20417;-85
2022/08/18 12:56:09;;;;;;;0.80;0.75;;;27.20;97.20;;;;;;5049560;28;20402;-85
2022/08/18 12:58:35;;;;;;;2.55;1.27;;;27.50;98.10;;;;;;5029720;28;20052;-85
2022/08/18 13:01:01;;;;;;;1.73;0.90;;;27.70;97.30;;;;;;5051924;28;20458;-85
2022/08/18 13:03:26;;;;;;;0.90;0.80;;;27.70;97.10;;;;;;5036762;28;20037;-85
2022/08/18 13:05:52;;;;;;;1.65;0.93;;;27.60;97.10;;;;;;5052083;28;20048;-85
2022/08/18 13:08:20;;;;;;;1.55;1.00;;;27.10;98.30;;;;;;5052235;28;20037;-85
2022/08/18 13:10:46;;;;;;;2.97;1.15;;;26.80;97.80;;;;;;5033327;28;20044;-85
2022/08/18 13:13:14;;;;;;;0.82;0.60;;;26.70;97.50;;;;;;5034558;28;20033;-85
2022/08/18 13:15:40;;;;;;;1.27;1.00;;;26.90;98.60;;;;;;5047316;28;20045;-85
2022/08/18 13:18:06;;;;;;;3.53;1.20;;;26.90;98.50;;;;;;5051913;28;20045;-85
2022/08/18 13:20:33;;;;;;;2.95;1.55;;;26.90;98.90;;;;;;5036902;28;20124;-85
2022/08/18 13:22:59;;;;;;;0.95;0.90;;;26.40;97.60;;;;;;5053052;28;20037;-85
2022/08/18 13:25:25;;;;;;;1.33;1.10;;;26.30;99.30;;;;;;5055594;28;20051;-86
2022/08/18 13:27:55;;;;;;;1.75;0.90;;;26.30;99.10;;;;;;5038702;28;20040;-83
2022/08/18 13:30:24;;;;;;;2.45;1.60;;;26.30;99.10;;;;;;5036972;28;20121;-83
2022/08/18 13:32:51;;;;;;;1.63;1.10;;;26.30;98.50;;;;;;5055138;28;20079;-83
2022/08/18 13:35:17;;;;;;;1.67;1.05;;;26.30;98.10;;;;;;5055483;28;20465;-83